Bullsbrook Pearce Amo, Australia
Current Conditions -  °F | °C
As of 11:00 AM on Tuesday 27 Jan 2015 (Local Time) from YPEA Reporting Station
Clear Clear  
Wind Chill: 97°   Ceiling: Unl
Heat Index: 97°   Visibility: 6mi
Dew Point: 46°   Wind: 13mph
Humidity: 18%   Direction: 60°ENE
Pressure: 29.74"   Gusts: NA
Location:  31.67°S, 116.02°E
Report Text: YPEA 270300Z 06011KT CAVOK 36/08 Q1007 NOSIG
Loading
Personal Weather Stations






























Interactive Weather Map New forecast layout! Learn more

10-Day Weather Forecast

Advertisements
Track Severe Weather on mobile